juin
12

MX – LIVE MOTOCROSS FIM – GRAND PRIX DU PORTUGAL : RÉSULTATS ET INFOS

1 ÈRE MANCHE QUALIFICATIVE MX1

Holeshot de Bobryshev..

Chute de Barragan qui perd l’avant à l’entrée d’un virage..

Ben Townley rentrera dans les stands à 8 mn de la fin de la manche..

Chute de Bobryshev et abandon d’Aranda à 4 min de la fin..

MX1 – Qualifying Race – Classification
Pos Nr Rider Nat. Fed. Bike Time laps Diff. First Diff. Prev. Bestlaptime in lap Speed

1 25 Desalle, Clement BEL FMB Suzuki 23:47.136 12 0:00.000 0:00.000 1:48.642 5 49.705
2 2 Nagl, Maximilian GER DMSB KTM 23:49.337 12 0:02.201 0:02.201 1:49.254 3 49.426
3 222 Cairoli, Antonio ITA FMI KTM 23:57.163 12 0:10.027 0:07.826 1:49.932 4 49.121
4 9 de Dycker, Ken BEL FMB Honda 24:00.630 12 0:13.494 0:03.467 1:50.094 4 49.049
5 121 Boog, Xavier FRA FFM Kawasaki 24:05.514 12 0:18.378 0:04.884 1:50.590 7 48.829
6 11 Ramon, Steve BEL FMB Suzuki 24:08.022 12 0:20.886 0:02.508 1:50.687 5 48.786
7 777 Bobryshev, Evgeny RUS MFR Honda 24:11.915 12 0:24.779 0:03.893 1:49.384 2 49.367
8 24 Simpson, Shaun GBR ACU Honda 24:18.707 12 0:31.571 0:06.792 1:51.086 4 48.611
9 22 Strijbos, Kevin BEL FMB Suzuki 24:19.153 12 0:32.017 0:00.446 1:51.266 5 48.532
10 7 Barragan, Jonathan ESP RFME Kawasaki 24:22.554 12 0:35.418 0:03.401 1:51.636 8 48.371
11 999 Goncalves, Rui POR FMP Honda 24:23.846 12 0:36.710 0:01.292 1:51.885 8 48.264
12 19 Philippaerts, David ITA FMI Yamaha 24:24.597 12 0:37.461 0:00.751 1:50.639 10 48.807
13 6 Leok, Tanel EST EMF TM 24:25.746 12 0:38.610 0:01.149 1:51.110 12 48.6
14 39 Guarneri, Davide ITA FMI Kawasaki 24:38.733 12 0:51.597 0:12.987 1:52.015 5 48.208
15 287 Schiffer, Marcus GER DMSB Suzuki 24:43.540 12 0:56.404 0:04.807 1:52.585 8 47.964
16 183 Frossard, Steven FRA FFM Yamaha 24:53.568 12 1:06.432 0:10.028 1:52.036 4 48.199
17 311 Correia, Luis POR FMP Yamaha 24:54.262 12 1:07.126 0:00.694 1:53.548 6 47.557
18 14 de Reuver, Marc NED KNMV Yamaha 24:57.499 12 1:10.363 0:03.237 1:52.507 6 47.997
19 61 Brakke, Herjan NED KNMV Yamaha 25:23.394 12 1:36.258 0:25.895 1:55.466 2 46.767
20 10 Boissiere, Anthony FRA FFM Yamaha 25:27.007 12 1:39.871 0:03.613 1:53.859 6 47.427
21 49 Schmidinger, Günter AUT OeAMTC Honda 25:28.288 12 1:41.152 0:01.281 1:55.838 6 46.617
22 74 Steinbergs, Ivo LAT LAMSF Kawasaki 25:33.483 12 1:46.347 0:05.195 1:56.379 10 46.4
23 115 Campano Jimenez, Carlos ESP RFME Yamaha 25:39.653 12 1:52.517 0:06.170 1:56.023 11 46.542
24 747 Basaula, Hugo POR FMP Kawasaki 23:52.166 11 1 lap 1 lap 1:56.244 2 46.454
25 387 Martens, Yentel BEL MUL KTM 23:53.270 11 1 lap 0:01.104 1:57.938 7 45.787
26 100 Marcos, Sandro POR FMP Suzuki 23:57.639 11 1 lap 0:04.369 1:58.252 3 45.665
27 52 Walkner, Matthias AUT OeAMTC KTM 23:58.249 11 1 lap 0:00.610 1:56.846 1 46.215
28 67 Tiainen, Santtu FIN SML Kawasaki 23:59.250 11 1 lap 0:01.001 1:57.894 3 45.804
29 95 Augusts, Justs LAT LAMSF Honda 24:03.623 11 1 lap 0:04.373 1:58.913 6 45.411
30 41 Smith, Alfie GBR ACU Aprilia 24:34.676 11 1 lap 0:31.053 1:59.648 3 45.132
31 20 Aranda, Gregory FRA FFM Kawasaki 23:50.562 10 2 laps 1 lap 1:51.356 9 48.493
32 26 Delince, Jeremy BEL FMB KTM 13:47.642 6 6 laps 4 laps 1:56.283 3 46.438
33 101 Townley, Benjamin NZL MNZ Kawasaki 9:27.833 4 8 laps 2 laps 1:54.031 3 47.356
34 531 Galligari, Francesco ITA FMI Honda 4:30.180 1 11 laps 3 laps 2:22.736 1 37.832
35 13 Monni, Manuel ITA FMI Honda 2:28.146 0 12 laps 1 lap 0:00.000 0 0
36 45 Leonce, Loic FRA FFM Aprilia 0:00.000 0 12 laps -3:31.854 0:00.000 0 0

Holeshot de Nicolas Aubin..

Chute de Herlings dans un virage à 2 mn de la fin de manche..

Chute de Christophe Charlier à 2 tours de la fin et qui rentre aux stands avec une douleur au poignet gauche, abandon de Tixier dans la foulée..

MX2 – Qualifying Race – Classification
Pos Nr Rider Nat. Fed. Bike Time laps Diff. First Diff. Prev. Bestlaptime in lap Speed

1 94 Roczen, Ken GER DMSB KTM 25:36.182 13 0:00.000 0:00.000 1:48.887 6 49.593
2 100 Searle, Tommy GBR ACU Kawasaki 25:59.011 13 0:22.829 0:22.829 1:50.036 7 49.075
3 7 Tonus, Arnaud SUI FMS Yamaha 26:02.819 13 0:26.637 0:03.808 1:51.729 2 48.331
4 21 Paulin, Gautier FRA MCM Yamaha 26:03.788 13 0:27.606 0:00.969 1:50.775 4 48.747

5 131 Aubin, Nicolas FRA FFM KTM 26:09.437 13 0:33.255 0:05.649 1:51.181 3 48.569
6 84 Herlings, Jeffrey NED KNMV KTM 26:22.767 13 0:46.585 0:13.330 1:49.897 6 49.137
7 338 Osborne, Zachary USA ACU Yamaha 26:26.928 13 0:50.746 0:04.161 1:51.966 4 48.229
8 99 Anstie, Max GBR AMA Kawasaki 26:27.831 13 0:51.649 0:00.903 1:52.604 5 47.956
9 45 Nicholls, Jake GBR ACU KTM 26:33.729 13 0:57.547 0:05.898 1:53.788 2 47.457
10 151 Kullas, Harri FIN SML Yamaha 26:34.932 13 0:58.750 0:01.203 1:53.156 6 47.722
11 34 Roelants, Joel BEL FMB KTM 26:35.350 13 0:59.168 0:00.418 1:52.793 13 47.875
12 25 Coldenhoff, Glenn NED KNMV Yamaha 26:54.547 13 1:18.365 0:19.197 1:54.436 10 47.188
13 590 Triest, Nick BEL FMB KTM 27:03.732 13 1:27.550 0:09.185 1:54.487 5 47.167
14 17 Butron Oliva, Antonio Jose ESP RFME KTM 27:17.753 13 1:41.571 0:14.021 1:53.115 2 47.739
15 152 Petrov, Petar BUL BMF Yamaha 27:27.048 13 1:50.866 0:09.295 1:55.728 4 46.661
16 262 Del Segato, Giacomo ITA FMI KTM 27:33.919 13 1:57.737 0:06.871 1:56.376 3 46.401
17 77 Lupino, Alessandro ITA FMI Husqvarna 25:38.905 12 1 lap 1 lap 1:55.979 3 46.56
18 685 Lenoir, Steven FRA FFM Yamaha 25:39.951 12 1 lap 0:01.046 1:56.694 2 46.275
19 20 Svoboda, Bence HUN MAMS KTM 25:40.998 12 1 lap 0:01.047 1:57.023 4 46.145
20 79 Oldekamp, Lars GER DMSB KTM 25:41.853 12 1 lap 0:00.855 1:57.100 3 46.114
21 501 Fernandes, Ivo POR FMP Honda 25:47.134 12 1 lap 0:05.281 1:57.526 5 45.947
22 388 Söderberg, Ludvig FIN SML Kawasaki 25:48.345 12 1 lap 0:01.211 1:57.813 8 45.835
23 55 Kras, Mike NED KNMV Suzuki 25:49.428 12 1 lap 0:01.083 1:56.867 7 46.206
24 76 Rauchenecker, Pascal AUT OeAMTC KTM 25:49.618 12 1 lap 0:00.190 1:56.524 7 46.342
25 33 Lieber, Julien BEL MUL KTM 25:56.909 12 1 lap 0:07.291 1:57.567 11 45.931
26 12 Zecchina, Simone ITA FMI Suzuki 26:15.331 12 1 lap 0:18.422 1:59.857 3 45.054
27 114 Booker, Jordan GBR ACU KTM 26:18.713 12 1 lap 0:03.382 1:59.189 5 45.306
28 495 Plessers, Mathias BEL FMB Honda 26:51.256 12 1 lap 0:32.543 2:02.049 6 44.245
29 550 Mitchell, Sean ZIM ZMSF Honda 27:12.834 12 1 lap 0:21.578 2:00.492 4 44.816
30 611 Cociu, Mihail MDA FRM Honda 27:27.872 12 1 lap 0:15.038 2:03.227 5 43.822
31 339 Thacker, Michael USA LAMSF Kawasaki 27:37.614 11 2 laps 1 lap 2:02.459 5 44.096
32 430 Charlier, Christophe FRA FFM Yamaha 16:55.476 8 5 laps 3 laps 1:53.308 1 47.658
33 911 Tixier, Jordi FRA FFM KTM 17:04.529 8 5 laps 0:09.053 1:53.295 8 47.663

34 170 Leib, Michael USA FSM Husqvarna 18:36.191 7 6 laps 1 lap 1:55.564 3 46.727

EMX2 – Race 1 – Classification
Pos Nr Rider Nat. Fed. Bike Time laps Diff. First Diff. Prev. Bestlaptime in lap Speed
1 122 Ferrandis, Dylan FRA FFM Kawasaki 29:05.927 14 0:00.000 0:00.000 1:55.331 7 46.822

2 51 Getteman, Jens BEL FMB Yamaha 29:28.112 14 0:22.185 0:22.185 1:56.993 3 46.157
3 225 Lefrancois, Charles FRA FFM Honda 29:31.918 14 0:25.991 0:03.806 1:58.065 2 45.738
4 461 Febvre, Romain FRA FFM KTM 29:35.575 14 0:29.648 0:03.657 1:57.725 9 45.87

5 11 Bastemeijer, Donny NED KNMV Honda 29:40.419 14 0:34.492 0:04.844 1:57.808 6 45.837
6 336 Olsen, Stefan Kjer DEN DMU Yamaha 29:43.198 14 0:37.271 0:02.779 1:57.930 6 45.79
7 221 Rätsep, Priit EST EMF Honda 29:45.165 14 0:39.238 0:01.967 1:57.849 6 45.821
8 20 Irt, Jernej SLO AMZS Suzuki 29:49.023 14 0:43.096 0:03.858 1:57.631 5 45.906
9 12 Heibye, Even NOR NMF KTM 29:50.839 14 0:44.912 0:01.816 1:58.157 7 45.702
10 149 Ullrich, Dennis GER DMSB Honda 30:02.169 14 0:56.242 0:11.330 1:57.884 12 45.808
11 103 Vandueren, Kenny BEL FMB KTM 30:06.095 14 1:00.168 0:03.926 1:59.437 12 45.212
12 192 Mercandino, Michael ITA FMI KTM 30:07.137 14 1:01.210 0:01.042 1:59.255 13 45.281
13 243 Gajser, Tim SLO AMZS KTM 30:14.036 14 1:08.109 0:06.899 1:59.515 3 45.183
14 228 Jorgensen, Rasmus DEN DMU Suzuki 30:21.462 14 1:15.535 0:07.426 1:59.880 4 45.045
15 151 Desprey, Maxime FRA FFM Yamaha 30:31.847 14 1:25.920 0:10.385 1:59.226 3 45.292
16 271 Alberto, Paulo POR FMP Suzuki 30:33.125 14 1:27.198 0:01.278 2:00.112 8 44.958
17 193 Brackman, Wietse BEL FMB KTM 30:41.813 14 1:35.886 0:08.688 2:01.986 12 44.267
18 14 Poppe, Jens BEL FMB Yamaha 30:43.947 14 1:38.020 0:02.134 2:01.207 2 44.552
19 17 Bertuzzo, Pierfilippo ITA FMI Yamaha 30:46.032 14 1:40.105 0:02.085 2:00.862 6 44.679
20 21 Fors, Kevin BEL FMB KTM 30:49.630 14 1:43.703 0:03.598 2:01.503 9 44.443
21 81 Van Wezel, Michael NED KNMV KTM 30:53.269 14 1:47.342 0:03.639 2:00.988 5 44.633
22 22 Gultvedt, Andreas NOR NMF KTM 30:53.704 14 1:47.777 0:00.435 2:01.345 8 44.501
23 615 Takatalo, Eeli FIN SML Honda 30:55.277 14 1:49.350 0:01.573 2:00.724 5 44.73
24 211 Jaulin, Sulivan FRA FFM Kawasaki 30:58.436 14 1:52.509 0:03.159 2:00.968 7 44.64
25 50 Oliva Galera, Christian ESP RFME Yamaha 31:00.828 14 1:54.901 0:02.392 2:01.382 6 44.488
26 64 Bengtsson, Filip SWE SVEMO KTM 31:02.440 14 1:56.513 0:01.612 2:00.804 5 44.701
27 73 Irt, Peter SLO AMZS Suzuki 31:03.587 14 1:57.660 0:01.147 2:01.945 4 44.282
28 37 Hjortmarker, Eddie SWE SVEMO Honda 31:04.864 14 1:58.937 0:01.277 2:01.080 7 44.599
29 99 Ciucci, Dawid ITA FMI Yamaha 29:09.248 13 1 lap 1 lap 2:02.347 11 44.137
30 91 Sanchez Osuna, Alonso ESP RFME Honda 29:11.507 13 1 lap 0:02.259 2:02.843 7 43.959
31 94 Reuther, Lars GER DMSB KTM 24:34.493 11 3 laps 2 laps 2:00.401 5 44.85
32 141 Cervellin, Andrea ITA FMI Husqvarna 21:03.902 9 5 laps 2 laps 1:59.645 5 45.134
33 19 Muratori, Francesco ITA FMI Suzuki 22:57.389 9 5 laps 1:53.487 2:03.368 5 43.771
34 58 Ortuno, Antonio ESP RFME KTM 14:47.186 6 8 laps 3 laps 2:03.118 6 43.86
35 66 Tombs, Lewis GBR ACU Honda 10:07.244 4 10 laps 2 laps 2:01.388 2 44.485
36 171 Soper, Marcus-Lee GBR ACU Honda 6:10.457 2 12 laps 2 laps 2:03.319 2 43.789
37 77 D’Angelo, Alessandro ITA FMI KTM 6:11.681 2 12 laps 0:01.224 2:04.231 2 43.467
38 799 Gaudree, Alexis FRA FFM Honda 6:31.136 2 12 laps 0:19.455 2:12.311 2 40.813
39 951 Aubin, Arnaud FRA FFM KTM 3:47.496 1 13 laps 1 lap 2:01.316 1 44.512

40 262 Lonka, Lukasz POL PZM Honda 3:56.922 1 13 laps 0:09.426 2:02.287 1 44.158

MX1 – Warm-up – Classification
Pos Nr Rider Nat. Fed. Bike Bestlaptime in lap Diff. First Diff. Prev. Tot. Laps Speed

1 6 Leok, Tanel EST EMF TM 1:46.566 7 0:00.000 0:00.000 8 50.673
2 999 Goncalves, Rui POR FMP Honda 1:46.780 9 0:00.214 0:00.214 9 50.571
3 19 Philippaerts, David ITA FMI Yamaha 1:47.131 7 0:00.565 0:00.351 7 50.406
4 121 Boog, Xavier FRA FFM Kawasaki 1:47.218 8 0:00.652 0:00.087 8 50.365
5 777 Bobryshev, Evgeny RUS MFR Honda 1:47.523 7 0:00.957 0:00.305 7 50.222
6 222 Cairoli, Antonio ITA FMI KTM 1:48.164 7 0:01.598 0:00.641 8 49.924
7 20 Aranda, Gregory FRA FFM Kawasaki 1:48.417 5 0:01.851 0:00.253 7 49.808
8 7 Barragan, Jonathan ESP RFME Kawasaki 1:48.491 9 0:01.925 0:00.074 9 49.774
9 183 Frossard, Steven FRA FFM Yamaha 1:48.675 6 0:02.109 0:00.184 8 49.689
10 9 de Dycker, Ken BEL FMB Honda 1:49.039 5 0:02.473 0:00.364 5 49.524
11 24 Simpson, Shaun GBR ACU Honda 1:49.319 6 0:02.753 0:00.280 9 49.397
12 2 Nagl, Maximilian GER DMSB KTM 1:49.332 8 0:02.766 0:00.013 8 49.391
13 287 Schiffer, Marcus GER DMSB Suzuki 1:49.882 9 0:03.316 0:00.550 9 49.144
14 10 Boissiere, Anthony FRA FFM Yamaha 1:50.302 7 0:03.736 0:00.420 7 48.957
15 11 Ramon, Steve BEL FMB Suzuki 1:50.394 6 0:03.828 0:00.092 9 48.916
16 26 Delince, Jeremy BEL FMB KTM 1:50.481 9 0:03.915 0:00.087 9 48.877
17 311 Correia, Luis POR FMP Yamaha 1:50.794 7 0:04.228 0:00.313 7 48.739
18 115 Campano Jimenez, Carlos ESP RFME Yamaha 1:51.368 7 0:04.802 0:00.574 8 48.488
19 747 Basaula, Hugo POR FMP Kawasaki 1:51.371 7 0:04.805 0:00.003 8 48.487
20 14 de Reuver, Marc NED KNMV Yamaha 1:51.568 5 0:05.002 0:00.197 5 48.401
21 49 Schmidinger, Günter AUT OeAMTC Honda 1:51.806 7 0:05.240 0:00.238 8 48.298
22 95 Augusts, Justs LAT LAMSF Honda 1:51.823 5 0:05.257 0:00.017 7 48.291
23 52 Walkner, Matthias AUT OeAMTC KTM 1:51.951 7 0:05.385 0:00.128 8 48.235
24 45 Leonce, Loic FRA FFM Aprilia 1:53.518 5 0:06.952 0:01.567 6 47.57
25 67 Tiainen, Santtu FIN SML Kawasaki 1:53.527 4 0:06.961 0:00.009 9 47.566
26 387 Martens, Yentel BEL MUL KTM 1:54.132 8 0:07.566 0:00.605 8 47.314
27 61 Brakke, Herjan NED KNMV Yamaha 1:54.330 8 0:07.764 0:00.198 8 47.232
28 22 Strijbos, Kevin BEL FMB Suzuki 1:55.029 5 0:08.463 0:00.699 8 46.945
29 100 Marcos, Sandro POR FMP Suzuki 1:55.428 4 0:08.862 0:00.399 8 46.782
30 74 Steinbergs, Ivo LAT LAMSF Kawasaki 1:56.273 5 0:09.707 0:00.845 6 46.442
31 41 Smith, Alfie GBR ACU Aprilia 1:56.773 5 0:10.207 0:00.500 5 46.244
32 25 Desalle, Clement BEL FMB Suzuki 1:56.866 6 0:10.300 0:00.093 9 46.207
33 39 Guarneri, Davide ITA FMI Kawasaki 2:01.163 3 0:14.597 0:04.297 9 44.568
34 531 Galligari, Francesco ITA FMI Honda 2:17.524 3 0:30.958 0:16.361 3 39.266

MX2 – Warm-up – Classification
Pos Nr Rider Nat. Fed. Bike Bestlaptime in lap Diff. First Diff. Prev. Tot. Laps Speed

1 94 Roczen, Ken GER DMSB KTM 1:47.969 9 0:00.000 0:00.000 9 50.014
2 100 Searle, Tommy GBR ACU Kawasaki 1:48.589 4 0:00.620 0:00.620 9 49.729
3 21 Paulin, Gautier FRA MCM Yamaha 1:48.924 6 0:00.955 0:00.335 7 49.576
4 84 Herlings, Jeffrey NED KNMV KTM 1:49.209 6 0:01.240 0:00.285 8 49.446
5 7 Tonus, Arnaud SUI FMS Yamaha 1:49.455 6 0:01.486 0:00.246 9 49.335
6 430 Charlier, Christophe FRA FFM Yamaha 1:49.838 6 0:01.869 0:00.383 6 49.163

7 25 Coldenhoff, Glenn NED KNMV Yamaha 1:49.908 9 0:01.939 0:00.070 9 49.132
8 338 Osborne, Zachary USA ACU Yamaha 1:50.030 2 0:02.061 0:00.122 5 49.078
9 77 Lupino, Alessandro ITA FMI Husqvarna 1:50.288 6 0:02.319 0:00.258 8 48.963
10 17 Butron Oliva, Antonio Jose ESP RFME KTM 1:50.399 5 0:02.430 0:00.111 7 48.913
11 170 Leib, Michael USA FSM Husqvarna 1:50.402 7 0:02.433 0:00.003 8 48.912
12 34 Roelants, Joel BEL FMB KTM 1:51.189 8 0:03.220 0:00.787 8 48.566
13 99 Anstie, Max GBR AMA Kawasaki 1:51.301 5 0:03.332 0:00.112 8 48.517
14 152 Petrov, Petar BUL BMF Yamaha 1:51.544 7 0:03.575 0:00.243 8 48.411
15 911 Tixier, Jordi FRA FFM KTM 1:51.690 6 0:03.721 0:00.146 9 48.348
16 131 Aubin, Nicolas FRA FFM KTM 1:51.809 3 0:03.840 0:00.119 8 48.297

17 151 Kullas, Harri FIN SML Yamaha 1:51.995 4 0:04.026 0:00.186 7 48.216
18 45 Nicholls, Jake GBR ACU KTM 1:52.059 6 0:04.090 0:00.064 8 48.189
19 76 Rauchenecker, Pascal AUT OeAMTC KTM 1:52.455 6 0:04.486 0:00.396 9 48.019
20 12 Zecchina, Simone ITA FMI Suzuki 1:52.879 4 0:04.910 0:00.424 9 47.839
21 55 Kras, Mike NED KNMV Suzuki 1:52.930 4 0:04.961 0:00.051 7 47.817
22 685 Lenoir, Steven FRA FFM Yamaha 1:52.995 3 0:05.026 0:00.065 8 47.79
23 388 Söderberg, Ludvig FIN SML Kawasaki 1:53.251 9 0:05.282 0:00.256 9 47.682
24 262 Del Segato, Giacomo ITA FMI KTM 1:53.447 4 0:05.478 0:00.196 8 47.599
25 20 Svoboda, Bence HUN MAMS KTM 1:53.509 6 0:05.540 0:00.062 7 47.573
26 33 Lieber, Julien BEL MUL KTM 1:54.051 7 0:06.082 0:00.542 7 47.347
27 590 Triest, Nick BEL FMB KTM 1:54.822 2 0:06.853 0:00.771 3 47.029
28 501 Fernandes, Ivo POR FMP Honda 1:55.646 3 0:07.677 0:00.824 5 46.694
29 114 Booker, Jordan GBR ACU KTM 1:56.136 5 0:08.167 0:00.490 9 46.497
30 550 Mitchell, Sean ZIM ZMSF Honda 1:58.117 6 0:10.148 0:01.981 6 45.717
31 611 Cociu, Mihail MDA FRM Honda 1:58.510 5 0:10.541 0:00.393 5 45.566
32 495 Plessers, Mathias BEL FMB Honda 1:58.533 7 0:10.564 0:00.023 8 45.557
33 79 Oldekamp, Lars GER DMSB KTM 1:59.085 2 0:11.116 0:00.552 7 45.346
34 339 Thacker, Michael USA LAMSF Kawasaki 2:05.417 3 0:17.448 0:06.332 3 43.056

DIMANCHE

1 ÈRE MANCHE MX2

Holeshot de Nicolas Aubin et chute collective juste après incluant Arnaud Tonus.. Jeffrey Herlings prend la tête de course dans la foulée..

Chute de Nicolas Aubin quelque virages plus loin..

Tommy Searle en débordant un virage va entrainer les banderoles du circuit dans sa roue arrière et va devoir abandonner à 11 min de la fin de manche..

MX2 – Grand Prix Race 1 – Classification
Pos Nr Rider Nat. Fed. Bike Time laps Diff. First Diff. Prev. Bestlaptime in lap Speed

1 94 Roczen, Ken GER DMSB KTM 40:23.948 21 0:00.000 0:00.000 1:48.303 5 49.86
2 84 Herlings, Jeffrey NED KNMV KTM 40:26.256 21 0:02.308 0:02.308 1:48.900 2 49.587
3 338 Osborne, Zachary USA ACU Yamaha 40:51.030 21 0:27.082 0:24.774 1:49.513 8 49.309
4 99 Anstie, Max GBR AMA Kawasaki 40:54.842 21 0:30.894 0:03.812 1:50.040 2 49.073
5 21 Paulin, Gautier FRA MCM Yamaha 40:54.864 21 0:30.916 0:00.022 1:50.292 20 48.961
6 34 Roelants, Joel BEL FMB KTM 41:39.891 21 1:15.943 0:45.027 1:51.432 9 48.46
7 25 Coldenhoff, Glenn NED KNMV Yamaha 42:08.759 21 1:44.811 0:28.868 1:53.503 10 47.576
8 430 Charlier, Christophe FRA FFM Yamaha 42:11.898 21 1:47.950 0:03.139 1:52.790 20 47.877
9 17 Butron Oliva, Antonio Jose ESP RFME KTM 40:24.107 20 1 lap 1 lap 1:54.447 2 47.183
10 151 Kullas, Harri FIN SML Yamaha 40:32.214 20 1 lap 0:08.107 1:53.347 11 47.641
11 7 Tonus, Arnaud SUI FMS Yamaha 40:34.710 20 1 lap 0:02.496 1:51.932 10 48.244
12 77 Lupino, Alessandro ITA FMI Husqvarna 40:44.773 20 1 lap 0:10.063 1:54.727 9 47.068
13 45 Nicholls, Jake GBR ACU KTM 40:47.136 20 1 lap 0:02.363 1:55.066 7 46.93
14 590 Triest, Nick BEL FMB KTM 40:53.732 20 1 lap 0:06.596 1:54.182 10 47.293
15 152 Petrov, Petar BUL BMF Yamaha 41:09.110 20 1 lap 0:15.378 1:55.404 10 46.792
16 131 Aubin, Nicolas FRA FFM KTM 41:18.150 20 1 lap 0:09.040 1:52.933 15 47.816
17 170 Leib, Michael USA FSM Husqvarna 41:20.348 20 1 lap 0:02.198 1:55.347 9 46.815
18 685 Lenoir, Steven FRA FFM Yamaha 41:38.400 20 1 lap 0:18.052 1:55.727 4 46.662
19 55 Kras, Mike NED KNMV Suzuki 41:42.439 20 1 lap 0:04.039 1:57.315 10 46.03
20 262 Del Segato, Giacomo ITA FMI KTM 41:52.558 20 1 lap 0:10.119 1:57.208 15 46.072
21 20 Svoboda, Bence HUN MAMS KTM 41:56.583 20 1 lap 0:04.025 1:57.802 15 45.84
22 79 Oldekamp, Lars GER DMSB KTM 42:00.059 20 1 lap 0:03.476 1:58.108 15 45.721
23 12 Zecchina, Simone ITA FMI Suzuki 41:14.092 19 2 laps 1 lap 1:56.877 2 46.202
24 495 Plessers, Mathias BEL FMB Honda 41:28.283 19 2 laps 0:14.191 2:01.114 2 44.586
25 550 Mitchell, Sean ZIM ZMSF Honda 41:29.647 19 2 laps 0:01.364 2:01.327 5 44.508
26 611 Cociu, Mihail MDA FRM Honda 41:46.533 19 2 laps 0:16.886 2:02.472 2 44.092
27 76 Rauchenecker, Pascal AUT OeAMTC KTM 33:20.877 16 5 laps 3 laps 1:56.383 6 46.399
28 114 Booker, Jordan GBR ACU KTM 19:52.264 9 12 laps 7 laps 1:57.945 9 45.784
29 911 Tixier, Jordi FRA FFM KTM 15:38.337 7 14 laps 2 laps 1:54.135 6 47.312
30 339 Thacker, Michael USA LAMSF Kawasaki 14:58.705 6 15 laps 1 lap 2:03.235 2 43.819
31 33 Lieber, Julien BEL MUL KTM 6:00.959 2 19 laps 4 laps 2:00.993 2 44.631
32 388 Söderberg, Ludvig FIN SML Kawasaki 3:51.822 1 20 laps 1 lap 1:58.742 1 45.477
33 501 Fernandes, Ivo POR FMP Honda 0:00.000 0 21 laps 1 lap 0:00.000 0 0
999 100 Searle, Tommy GBR ACU Kawasaki 22:07.158 11 10 laps -11 laps 1:50.628 8 48.812

1 ÈRE MANCHE MX1

Holeshot de Desalle et chute de Barragan..

Chute de Philippaerts à 20 min de la fin de manche..

MX1 – Grand Prix Race 1 – Classification
Pos Nr Rider Nat. Fed. Bike Time laps Diff. First Diff. Prev. Bestlaptime in lap Speed

1 25 Desalle, Clement BEL FMB Suzuki 40:08.979 21 0:00.000 0:00.000 1:48.675 5 49.689
2 222 Cairoli, Antonio ITA FMI KTM 40:09.326 21 0:00.347 0:00.347 1:48.909 18 49.583
3 183 Frossard, Steven FRA FFM Yamaha 40:30.542 21 0:21.563 0:21.216 1:48.105 5 49.951
4 777 Bobryshev, Evgeny RUS MFR Honda 40:36.932 21 0:27.953 0:06.390 1:49.592 5 49.274
5 121 Boog, Xavier FRA FFM Kawasaki 40:42.848 21 0:33.869 0:05.916 1:50.022 3 49.081
6 9 de Dycker, Ken BEL FMB Honda 40:44.540 21 0:35.561 0:01.692 1:49.754 5 49.201
7 999 Goncalves, Rui POR FMP Honda 40:46.333 21 0:37.354 0:01.793 1:49.776 4 49.191
8 2 Nagl, Maximilian GER DMSB KTM 40:48.799 21 0:39.820 0:02.466 1:50.014 5 49.085
9 39 Guarneri, Davide ITA FMI Kawasaki 40:55.487 21 0:46.508 0:06.688 1:49.717 11 49.218
10 6 Leok, Tanel EST EMF TM 41:22.147 21 1:13.168 0:26.660 1:50.726 3 48.769
11 22 Strijbos, Kevin BEL FMB Suzuki 41:28.115 21 1:19.136 0:05.968 1:51.527 6 48.419
12 24 Simpson, Shaun GBR ACU Honda 41:29.960 21 1:20.981 0:01.845 1:52.161 3 48.145
13 7 Barragan, Jonathan ESP RFME Kawasaki 41:30.107 21 1:21.128 0:00.147 1:51.080 20 48.614
14 287 Schiffer, Marcus GER DMSB Suzuki 42:04.411 21 1:55.432 0:34.304 1:52.696 5 47.917
15 11 Ramon, Steve BEL FMB Suzuki 40:20.841 20 1 lap 1 lap 1:50.665 3 48.796
16 311 Correia, Luis POR FMP Yamaha 40:21.581 20 1 lap 0:00.740 1:53.673 4 47.505
17 115 Campano Jimenez, Carlos ESP RFME Yamaha 40:23.238 20 1 lap 0:01.657 1:53.033 10 47.774
18 747 Basaula, Hugo POR FMP Kawasaki 40:35.632 20 1 lap 0:12.394 1:53.571 2 47.547
19 74 Steinbergs, Ivo LAT LAMSF Kawasaki 41:22.614 20 1 lap 0:46.982 1:55.893 19 46.595
20 61 Brakke, Herjan NED KNMV Yamaha 41:25.393 20 1 lap 0:02.779 1:54.530 3 47.149
21 67 Tiainen, Santtu FIN SML Kawasaki 41:35.758 20 1 lap 0:10.365 1:56.342 4 46.415
22 387 Martens, Yentel BEL MUL KTM 41:49.432 20 1 lap 0:13.674 1:55.511 3 46.749
23 95 Augusts, Justs LAT LAMSF Honda 42:16.244 20 1 lap 0:26.812 1:56.839 7 46.217
24 100 Marcos, Sandro POR FMP Suzuki 40:12.852 19 2 laps 1 lap 1:58.524 3 45.56
25 41 Smith, Alfie GBR ACU Aprilia 41:06.947 19 2 laps 0:54.095 1:58.311 5 45.642
26 26 Delince, Jeremy BEL FMB KTM 37:17.432 18 3 laps 1 lap 1:54.562 3 47.136
27 20 Aranda, Gregory FRA FFM Kawasaki 33:02.657 14 7 laps 4 laps 1:50.827 10 48.725
28 19 Philippaerts, David ITA FMI Yamaha 19:40.082 9 12 laps 5 laps 1:49.469 5 49.329
29 52 Walkner, Matthias AUT OeAMTC KTM 19:54.358 9 12 laps 0:14.276 1:55.916 6 46.585
30 45 Leonce, Loic FRA FFM Aprilia 11:51.263 5 16 laps 4 laps 1:57.641 3 45.902
31 10 Boissiere, Anthony FRA FFM Yamaha 11:11.084 4 17 laps 1 lap 1:55.604 1 46.711

32 531 Galligari, Francesco ITA FMI Honda 10:27.591 3 18 laps 1 lap 2:20.242 1 38.505
33 14 de Reuver, Marc NED KNMV Yamaha 3:50.574 1 20 laps 2 laps 1:59.436 1 45.212
34 13 Monni, Manuel ITA FMI Honda 1:59.247 0 21 laps 1 lap 0:00.000 0 0

2 ÈME MANCHE MX2 :

Holeshot de Ken Roczen..

Chute de Ken Roczen à 28 min de la fin de manche, le Pilote KTM a subi un gros choc sur la tête qui l’a mis complètement KO, il abandonnera..

MX2 – Grand Prix Race 2 – Classification
Pos Nr Rider Nat. Fed. Bike Time laps Diff. First Diff. Prev. Bestlaptime in lap Speed

1 100 Searle, Tommy GBR ACU Kawasaki 39:09.082 20 0:00.000 0:00.000 1:50.178 5 49.012
2 84 Herlings, Jeffrey NED KNMV KTM 39:25.345 20 0:16.263 0:16.263 1:50.495 2 48.871
3 21 Paulin, Gautier FRA MCM Yamaha 39:29.582 20 0:20.500 0:04.237 1:51.593 9 48.39
4 7 Tonus, Arnaud SUI FMS Yamaha 39:31.480 20 0:22.398 0:01.898 1:51.434 9 48.459

5 338 Osborne, Zachary USA ACU Yamaha 39:54.705 20 0:45.623 0:23.225 1:52.270 8 48.098
6 430 Charlier, Christophe FRA FFM Yamaha 40:02.053 20 0:52.971 0:07.348 1:52.954 5 47.807
7 99 Anstie, Max GBR AMA Kawasaki 40:13.232 20 1:04.150 0:11.179 1:52.951 8 47.808
8 131 Aubin, Nicolas FRA FFM KTM 40:17.795 20 1:08.713 0:04.563 1:53.244 8 47.685
9 151 Kullas, Harri FIN SML Yamaha 40:19.853 20 1:10.771 0:02.058 1:53.020 8 47.779
10 17 Butron Oliva, Antonio Jose ESP RFME KTM 40:43.925 20 1:34.843 0:24.072 1:55.353 5 46.813
11 45 Nicholls, Jake GBR ACU KTM 40:44.333 20 1:35.251 0:00.408 1:54.156 7 47.304
12 34 Roelants, Joel BEL FMB KTM 40:49.769 20 1:40.687 0:05.436 1:54.610 13 47.116
13 590 Triest, Nick BEL FMB KTM 39:12.658 19 1 lap 1 lap 1:55.029 5 46.945
14 25 Coldenhoff, Glenn NED KNMV Yamaha 39:13.184 19 1 lap 0:00.526 1:54.651 13 47.099
15 77 Lupino, Alessandro ITA FMI Husqvarna 39:35.919 19 1 lap 0:22.735 1:56.854 7 46.212
16 79 Oldekamp, Lars GER DMSB KTM 39:37.912 19 1 lap 0:01.993 1:56.268 8 46.444
17 152 Petrov, Petar BUL BMF Yamaha 39:45.529 19 1 lap 0:07.617 1:55.867 6 46.605
18 55 Kras, Mike NED KNMV Suzuki 39:51.791 19 1 lap 0:06.262 1:57.968 5 45.775
19 685 Lenoir, Steven FRA FFM Yamaha 39:55.847 19 1 lap 0:04.056 1:56.474 8 46.362
20 911 Tixier, Jordi FRA FFM KTM 39:56.541 19 1 lap 0:00.694 1:56.192 9 46.475

21 76 Rauchenecker, Pascal AUT OeAMTC KTM 39:57.922 19 1 lap 0:01.381 1:57.612 6 45.914
22 388 Söderberg, Ludvig FIN SML Kawasaki 39:58.953 19 1 lap 0:01.031 1:56.529 6 46.34
23 33 Lieber, Julien BEL MUL KTM 40:21.095 19 1 lap 0:22.142 1:58.687 7 45.498
24 262 Del Segato, Giacomo ITA FMI KTM 40:43.120 19 1 lap 0:22.025 1:59.450 5 45.207
25 12 Zecchina, Simone ITA FMI Suzuki 40:51.628 19 1 lap 0:08.508 1:58.777 8 45.463
26 611 Cociu, Mihail MDA FRM Honda 40:47.400 18 2 laps 1 lap 2:05.594 2 42.996
27 495 Plessers, Mathias BEL FMB Honda 41:03.700 18 2 laps 0:16.300 2:03.488 1 43.729
28 339 Thacker, Michael USA LAMSF Kawasaki 41:19.057 15 5 laps 3 laps 2:08.053 2 42.17
29 170 Leib, Michael USA FSM Husqvarna 11:52.713 5 15 laps 10 laps 1:55.569 5 46.725
30 94 Roczen, Ken GER DMSB KTM 5:13.544 2 18 laps 3 laps 1:49.237 1 49.434
31 550 Mitchell, Sean ZIM ZMSF Honda 6:43.000 2 18 laps 1:29.456 2:06.136 2 42.811
32 20 Svoboda, Bence HUN MAMS KTM 4:18.931 1 19 laps 1 lap 2:03.830 1 43.608
33 114 Booker, Jordan GBR ACU KTM 2:00.380 0 20 laps 1 lap 0:00.000 0 0

MX2 – GP Classification
Pos Nr Rider Nat. Fed. Bike Race 1 Race 2 Total

1 84 Herlings, Jeffrey NED KNMV KTM 22 22 44
2 21 Paulin, Gautier FRA MCM Yamaha 16 20 36
3 338 Osborne, Zachary USA ACU Yamaha 20 16 36
4 99 Anstie, Max GBR AMA Kawasaki 18 14 32
5 7 Tonus, Arnaud SUI FMS Yamaha 10 18 28
6 430 Charlier, Christophe FRA FFM Yamaha 13 15 28
7 100 Searle, Tommy GBR ACU Kawasaki 0 25 25
8 94 Roczen, Ken GER DMSB KTM 25 0 25
9 34 Roelants, Joel BEL FMB KTM 15 9 24
10 151 Kullas, Harri FIN SML Yamaha 11 12 23
11 17 Butron Oliva, Antonio Jose ESP RFME KTM 12 11 23
12 25 Coldenhoff, Glenn NED KNMV Yamaha 14 7 21
13 131 Aubin, Nicolas FRA FFM KTM 5 13 18
14 45 Nicholls, Jake GBR ACU KTM 8 10 18
15 590 Triest, Nick BEL FMB KTM 7 8 15
16 77 Lupino, Alessandro ITA FMI Husqvarna 9 6 15
17 152 Petrov, Petar BUL BMF Yamaha 6 4 10
18 79 Oldekamp, Lars GER DMSB KTM 0 5 5
19 55 Kras, Mike NED KNMV Suzuki 2 3 5
20 685 Lenoir, Steven FRA FFM Yamaha 3 2 5
21 170 Leib, Michael USA FSM Husqvarna 4 0 4
22 911 Tixier, Jordi FRA FFM KTM 0 1 1
23 262 Del Segato, Giacomo ITA FMI KTM 1 0 1
24 76 Rauchenecker, Pascal AUT OeAMTC KTM 0 0 0
25 388 Söderberg, Ludvig FIN SML Kawasaki 0 0 0
26 33 Lieber, Julien BEL MUL KTM 0 0 0
27 12 Zecchina, Simone ITA FMI Suzuki 0 0 0
28 611 Cociu, Mihail MDA FRM Honda 0 0 0
29 495 Plessers, Mathias BEL FMB Honda 0 0 0
30 339 Thacker, Michael USA LAMSF Kawasaki 0 0 0
31 550 Mitchell, Sean ZIM ZMSF Honda 0 0 0
32 20 Svoboda, Bence HUN MAMS KTM 0 0 0
33 114 Booker, Jordan GBR ACU KTM 0 0 0
34 501 Fernandes, Ivo POR FMP Honda 0 0 0

MX2 – World Championship Classification
Pos Nr Rider Nat. Total BUL NED USA BRA FRA POR ESP SWE GER LAT BEL CZE GBR EUR ITA

1 84 Herlings, J. NED 257 16-20 25-25 22-22 22-25 14-22 22-22 - - - - - - - - - - - - - - - - - -
2 94 Roczen, Ken GER 251 25-25 22-22 25-25 25-22 25-10 25-0 - - - - - - - - - - - - - - - - - -
3 100 Searle, Tommy GBR 224 22-22 20-20 16-20 18-18 18-25 0-25 - - - - - - - - - - - - - - - - - -
4 338 Osborne, Z. USA 198 14-18 15-13 12-18 16-16 20-20 20-16 - - - - - - - - - - - - - - - - - -
5 21 Paulin, G. FRA 196 20-14 16-15 15-0 20-20 22-18 16-20 - - - - - - - - - - - - - - - - - -
6 99 Anstie, Max GBR 167 13-15 11-12 20-16 15-14 4-15 18-14 - - - - - - - - - - - - - - - - - -
7 7 Tonus, Arnaud SUI 166 18-13 18-18 14-0 14-13 16-14 10-18 - - - - - - - - - - - - - - - - - -
8 151 Kullas, Harri FIN 142 11-7 14-14 18-10 10-12 11-12 11-12 - - - - - - - - - - - - - - - - - -
9 34 Roelants, Joel BEL 138 10-9 13-16 7-12 13-10 13-11 15-9 - - - - - - - - - - - - - - - - - -
10 430 Charlier, C. FRA 130 7-11 7-11 13-13 12-15 0-13 13-15 - - - - - - - - - - - - - - - - - -
11 131 Aubin, Nicolas FRA 122 12-12 12-0 9-14 7-7 15-16 5-13 - - - - - - - - - - - - - - - - - -
12 911 Tixier, Jordi FRA 71 8-3 3-6 8-11 11-11 9-0 0-1 - - - - - - - - - - - - - - - - - -

13 25 Coldenhoff, G. NED 66 6-8 9-8 - - - - 8-6 14-7 - - - - - - - - - - - - - - - - - -
14 77 Lupino, A. ITA 62 1-10 0-3 6-7 9-4 0-7 9-6 - - - - - - - - - - - - - - - - - -
15 17 Butron Oliva, A. ESP 52 4-2 8-7 - - - - 7-1 12-11 - - - - - - - - - - - - - - - - - -
16 76 Rauchenecker, P. AUT 52 5-5 4-0 3-8 8-9 6-4 0-0 - - - - - - - - - - - - - - - - - -
17 152 Petrov, Petar BUL 44 3-0 0-10 10-3 5-0 0-3 6-4 - - - - - - - - - - - - - - - - - -
18 590 Triest, Nick BEL 37 0-4 0-4 - - - - 5-9 7-8 - - - - - - - - - - - - - - - - - -
19 45 Nicholls, Jake GBR 36 - - - - - - - - 10-8 8-10 - - - - - - - - - - - - - - - - - -
20 89 van Horebeek, J. BEL 31 15-16 - - - - - - - - - - - - - - - - - - - - - - - - - - - -
21 249 Larsen, N. DEN 30 0-0 10-9 5-6 - - - - - - - - - - - - - - - - - - - - - - - -
22 173 Guillod, V. SUI 20 0-1 1-0 4-4 4-6 - - - - - - - - - - - - - - - - - - - - - -
23 1 Musquin, M. FRA 17 - - - - 2-15 - - - - - - - - - - - - - - - - - - - - - - - -
24 44 Banks-Browne, E. GBR 17 - - - - - - - - 12-5 - - - - - - - - - - - - - - - - - - - -
25 585 Baker, Travis USA 16 - - - - 11-5 - - - - - - - - - - - - - - - - - - - - - - - -
26 91 Karro, Matiss LAT 15 9-6 - - - - - - - - - - - - - - - - - - - - - - - - - - - -
27 230 Assuncao de Freitas, H. BRA 14 - - - - - - 6-8 - - - - - - - - - - - - - - - - - - - - - -
28 388 Söderberg, L. FIN 12 0-0 2-5 0-0 1-2 2-0 0-0 - - - - - - - - - - - - - - - - - -
29 55 Kras, Mike NED 11 - - 6-0 - - - - 0-0 2-3 - - - - - - - - - - - - - - - - - -
30 79 Oldekamp, Lars GER 10 0-0 5-0 0-0 - - 0-0 0-5 - - - - - - - - - - - - - - - - - -
31 85 Champion, S. USA 9 - - - - 0-9 - - - - - - - - - - - - - - - - - - - - - - - -
32 118 Ramos, Jean BRA 8 - - - - - - 3-5 - - - - - - - - - - - - - - - - - - - - - -
33 685 Lenoir, Steven FRA 6 - - - - - - - - 1-0 3-2 - - - - - - - - - - - - - - - - - -
34 170 Leib, Michael USA 4 - - - - - - - - - - 4-0 - - - - - - - - - - - - - - - - - -
35 12 Zecchina, S. ITA 3 - - - - - - - - 3-0 0-0 - - - - - - - - - - - - - - - - - -
36 30 Villardi, T. BRA 3 - - - - - - 0-3 - - - - - - - - - - - - - - - - - - - - - -
37 238 Ferreira de Lima, E. BRA 3 - - - - - - 2-1 - - - - - - - - - - - - - - - - - - - - - -
38 141 Cervellin, A. ITA 2 - - - - 0-2 0-0 - - - - - - - - - - - - - - - - - - - - - -
39 128 Monticelli, I. ITA 2 0-0 0-0 0-0 0-0 0-2 - - - - - - - - - - - - - - - - - - - -
40 33 Lieber, Julien BEL 2 2-0 0-0 - - - - 0-0 0-0 - - - - - - - - - - - - - - - - - -
41 195 Justs, Roberts LAT 2 0-0 0-2 - - - - - - - - - - - - - - - - - - - - - - - - - -
42 102 Smitka, Petr CZE 1 0-0 0-1 - - - - 0-0 - - - - - - - - - - - - - - - - - - - -
43 262 Del Segato, G. ITA 1 0-0 0-0 - - - - 0-0 1-0 - - - - - - - - - - - - - - - - - -
44 166 Tedder, Dakota USA 1 - - - - 0-1 - - - - - - - - - - - - - - - - - - - - - - - -
45 27 Tapia, Tevin USA 1 - - - - 1-0 - - - - - - - - - - - - - - - - - - - - - - - -

2 ÈME MANCHE MX1

Holeshot de Goncalves..

Max Nagl rentrera aux stands suite à une chute et une selle détruite à 21 mn de la fin de manche, il abandonnera..

Nouvelle grosse chute de Davide Philippaerts qui abandonnera..

A voir aussi :

Le commentaires sont fermés.